sensor_id;sensor_type;location;lat;lon;timestamp;P1;durP1;ratioP1;P2;durP2;ratioP2
13291;SDS011;6714;53.056;8.690;2023-07-13T00:01:53;2.13;;;1.90;;
13291;SDS011;6714;53.056;8.690;2023-07-13T00:04:35;2.47;;;2.10;;
13291;SDS011;6714;53.056;8.690;2023-07-13T00:07:17;2.50;;;2.27;;
13291;SDS011;6714;53.056;8.690;2023-07-13T00:10:00;2.40;;;2.30;;
13291;SDS011;6714;53.056;8.690;2023-07-13T00:12:43;2.87;;;2.57;;
13291;SDS011;6714;53.056;8.690;2023-07-13T00:15:25;2.50;;;2.30;;
13291;SDS011;6714;53.056;8.690;2023-07-13T00:18:11;2.00;;;1.90;;
13291;SDS011;6714;53.056;8.690;2023-07-13T00:20:53;3.43;;;2.47;;
13291;SDS011;6714;53.056;8.690;2023-07-13T00:23:37;2.77;;;2.17;;
13291;SDS011;6714;53.056;8.690;2023-07-13T00:26:19;2.77;;;2.20;;
13291;SDS011;6714;53.056;8.690;2023-07-13T00:29:02;3.60;;;2.50;;
13291;SDS011;6714;53.056;8.690;2023-07-13T00:31:44;2.60;;;2.10;;
13291;SDS011;6714;53.056;8.690;2023-07-13T00:34:28;3.90;;;2.30;;
13291;SDS011;6714;53.056;8.690;2023-07-13T00:37:10;2.73;;;2.27;;
13291;SDS011;6714;53.056;8.690;2023-07-13T00:39:52;2.33;;;2.13;;
13291;SDS011;6714;53.056;8.690;2023-07-13T00:42:34;2.67;;;2.47;;
13291;SDS011;6714;53.056;8.690;2023-07-13T00:48:20;2.50;;;2.30;;
13291;SDS011;6714;53.056;8.690;2023-07-13T00:51:04;2.63;;;2.43;;
13291;SDS011;6714;53.056;8.690;2023-07-13T00:53:46;2.50;;;2.30;;
13291;SDS011;6714;53.056;8.690;2023-07-13T00:56:28;2.73;;;2.53;;
13291;SDS011;6714;53.056;8.690;2023-07-13T00:59:12;2.83;;;2.40;;
13291;SDS011;6714;53.056;8.690;2023-07-13T01:01:55;5.33;;;3.10;;
13291;SDS011;6714;53.056;8.690;2023-07-13T01:04:37;2.43;;;2.30;;
13291;SDS011;6714;53.056;8.690;2023-07-13T01:07:21;2.80;;;2.60;;
13291;SDS011;6714;53.056;8.690;2023-07-13T01:10:03;2.70;;;2.50;;
13291;SDS011;6714;53.056;8.690;2023-07-13T01:12:46;3.30;;;2.57;;
13291;SDS011;6714;53.056;8.690;2023-07-13T01:15:35;5.20;;;3.20;;
13291;SDS011;6714;53.056;8.690;2023-07-13T01:18:19;3.73;;;2.70;;
13291;SDS011;6714;53.056;8.690;2023-07-13T01:21:04;2.67;;;2.47;;
13291;SDS011;6714;53.056;8.690;2023-07-13T01:23:46;2.87;;;2.67;;
13291;SDS011;6714;53.056;8.690;2023-07-13T01:26:28;2.90;;;2.70;;
13291;SDS011;6714;53.056;8.690;2023-07-13T01:29:10;4.33;;;2.70;;
13291;SDS011;6714;53.056;8.690;2023-07-13T01:31:52;2.93;;;2.70;;
13291;SDS011;6714;53.056;8.690;2023-07-13T01:34:35;3.33;;;2.60;;
13291;SDS011;6714;53.056;8.690;2023-07-13T01:37:19;4.10;;;2.57;;
13291;SDS011;6714;53.056;8.690;2023-07-13T01:40:02;3.20;;;2.30;;
13291;SDS011;6714;53.056;8.690;2023-07-13T01:42:44;4.47;;;2.40;;
13291;SDS011;6714;53.056;8.690;2023-07-13T01:45:26;3.20;;;2.40;;
13291;SDS011;6714;53.056;8.690;2023-07-13T01:48:09;2.47;;;2.27;;
13291;SDS011;6714;53.056;8.690;2023-07-13T01:50:51;2.60;;;2.40;;
13291;SDS011;6714;53.056;8.690;2023-07-13T01:53:34;4.70;;;2.40;;
13291;SDS011;6714;53.056;8.690;2023-07-13T01:56:17;2.70;;;2.50;;
13291;SDS011;6714;53.056;8.690;2023-07-13T01:58:59;4.53;;;2.77;;
13291;SDS011;6714;53.056;8.690;2023-07-13T02:01:41;2.67;;;2.37;;
13291;SDS011;6714;53.056;8.690;2023-07-13T02:04:23;4.80;;;3.00;;
13291;SDS011;6714;53.056;8.690;2023-07-13T02:07:05;2.83;;;2.63;;
13291;SDS011;6714;53.056;8.690;2023-07-13T02:09:49;3.00;;;2.50;;
13291;SDS011;6714;53.056;8.690;2023-07-13T02:12:31;4.27;;;2.73;;
13291;SDS011;6714;53.056;8.690;2023-07-13T02:15:13;2.50;;;2.30;;
13291;SDS011;6714;53.056;8.690;2023-07-13T02:17:55;4.90;;;2.70;;
13291;SDS011;6714;53.056;8.690;2023-07-13T02:20:38;3.93;;;2.90;;
13291;SDS011;6714;53.056;8.690;2023-07-13T02:23:20;2.50;;;2.27;;
13291;SDS011;6714;53.056;8.690;2023-07-13T02:26:04;5.30;;;2.83;;
13291;SDS011;6714;53.056;8.690;2023-07-13T02:28:46;3.30;;;3.00;;
13291;SDS011;6714;53.056;8.690;2023-07-13T02:31:28;4.67;;;2.90;;
13291;SDS011;6714;53.056;8.690;2023-07-13T02:34:10;3.77;;;3.30;;
13291;SDS011;6714;53.056;8.690;2023-07-13T02:36:53;3.03;;;2.73;;
13291;SDS011;6714;53.056;8.690;2023-07-13T02:39:35;6.13;;;3.73;;
13291;SDS011;6714;53.056;8.690;2023-07-13T02:42:18;4.53;;;2.80;;
13291;SDS011;6714;53.056;8.690;2023-07-13T02:45:01;5.00;;;3.07;;
13291;SDS011;6714;53.056;8.690;2023-07-13T02:47:43;4.53;;;2.60;;
13291;SDS011;6714;53.056;8.690;2023-07-13T02:50:25;3.70;;;2.50;;
13291;SDS011;6714;53.056;8.690;2023-07-13T02:53:08;2.60;;;2.40;;
13291;SDS011;6714;53.056;8.690;2023-07-13T02:55:50;3.47;;;2.27;;
13291;SDS011;6714;53.056;8.690;2023-07-13T02:58:33;4.43;;;2.43;;
13291;SDS011;6714;53.056;8.690;2023-07-13T03:01:18;3.67;;;2.37;;
13291;SDS011;6714;53.056;8.690;2023-07-13T03:04:01;3.30;;;2.90;;
13291;SDS011;6714;53.056;8.690;2023-07-13T03:06:43;2.83;;;2.60;;
13291;SDS011;6714;53.056;8.690;2023-07-13T03:09:25;3.10;;;2.00;;
13291;SDS011;6714;53.056;8.690;2023-07-13T03:12:08;3.33;;;2.40;;
13291;SDS011;6714;53.056;8.690;2023-07-13T03:14:51;4.23;;;2.60;;
13291;SDS011;6714;53.056;8.690;2023-07-13T03:17:33;5.80;;;3.03;;
13291;SDS011;6714;53.056;8.690;2023-07-13T03:20:16;5.70;;;2.70;;
13291;SDS011;6714;53.056;8.690;2023-07-13T03:22:58;2.80;;;1.90;;
13291;SDS011;6714;53.056;8.690;2023-07-13T03:25:40;2.03;;;1.87;;
13291;SDS011;6714;53.056;8.690;2023-07-13T03:28:22;2.70;;;2.33;;
13291;SDS011;6714;53.056;8.690;2023-07-13T03:31:07;3.83;;;2.40;;
13291;SDS011;6714;53.056;8.690;2023-07-13T03:33:49;9.50;;;2.37;;
13291;SDS011;6714;53.056;8.690;2023-07-13T03:36:32;4.40;;;2.10;;
13291;SDS011;6714;53.056;8.690;2023-07-13T03:39:14;2.67;;;1.90;;
13291;SDS011;6714;53.056;8.690;2023-07-13T03:41:57;2.50;;;1.70;;
13291;SDS011;6714;53.056;8.690;2023-07-13T03:44:39;2.93;;;2.27;;
13291;SDS011;6714;53.056;8.690;2023-07-13T03:47:23;2.90;;;2.07;;
13291;SDS011;6714;53.056;8.690;2023-07-13T03:50:05;5.57;;;2.50;;
13291;SDS011;6714;53.056;8.690;2023-07-13T03:52:48;5.67;;;2.10;;
13291;SDS011;6714;53.056;8.690;2023-07-13T03:55:31;5.03;;;2.50;;
13291;SDS011;6714;53.056;8.690;2023-07-13T03:58:24;2.10;;;1.90;;
13291;SDS011;6714;53.056;8.690;2023-07-13T04:01:07;5.87;;;2.23;;
13291;SDS011;6714;53.056;8.690;2023-07-13T04:03:51;5.27;;;2.00;;
13291;SDS011;6714;53.056;8.690;2023-07-13T04:06:34;4.20;;;2.00;;
13291;SDS011;6714;53.056;8.690;2023-07-13T04:09:17;4.33;;;2.07;;
13291;SDS011;6714;53.056;8.690;2023-07-13T04:11:59;3.33;;;2.13;;
13291;SDS011;6714;53.056;8.690;2023-07-13T04:14:41;2.33;;;1.93;;
13291;SDS011;6714;53.056;8.690;2023-07-13T04:17:23;5.57;;;2.30;;
13291;SDS011;6714;53.056;8.690;2023-07-13T04:20:07;4.97;;;2.47;;
13291;SDS011;6714;53.056;8.690;2023-07-13T04:22:50;4.27;;;2.07;;
13291;SDS011;6714;53.056;8.690;2023-07-13T04:25:33;6.90;;;2.20;;
13291;SDS011;6714;53.056;8.690;2023-07-13T04:28:15;2.60;;;1.87;;
13291;SDS011;6714;53.056;8.690;2023-07-13T04:30:57;4.47;;;1.80;;
13291;SDS011;6714;53.056;8.690;2023-07-13T04:33:40;3.23;;;1.90;;
13291;SDS011;6714;53.056;8.690;2023-07-13T04:36:23;3.67;;;2.00;;
13291;SDS011;6714;53.056;8.690;2023-07-13T04:39:07;6.13;;;2.23;;
13291;SDS011;6714;53.056;8.690;2023-07-13T04:41:49;3.50;;;2.00;;
13291;SDS011;6714;53.056;8.690;2023-07-13T04:44:31;3.37;;;1.90;;
13291;SDS011;6714;53.056;8.690;2023-07-13T04:47:13;2.23;;;1.70;;
13291;SDS011;6714;53.056;8.690;2023-07-13T04:49:56;4.83;;;2.03;;
13291;SDS011;6714;53.056;8.690;2023-07-13T04:52:39;2.50;;;1.50;;
13291;SDS011;6714;53.056;8.690;2023-07-13T04:55:22;4.13;;;1.70;;
13291;SDS011;6714;53.056;8.690;2023-07-13T04:58:04;5.73;;;2.10;;
13291;SDS011;6714;53.056;8.690;2023-07-13T05:00:46;2.90;;;1.83;;
13291;SDS011;6714;53.056;8.690;2023-07-13T05:03:29;3.47;;;1.63;;
13291;SDS011;6714;53.056;8.690;2023-07-13T05:06:11;6.07;;;2.00;;
13291;SDS011;6714;53.056;8.690;2023-07-13T05:08:55;4.20;;;1.83;;
13291;SDS011;6714;53.056;8.690;2023-07-13T05:11:37;5.50;;;2.17;;
13291;SDS011;6714;53.056;8.690;2023-07-13T05:14:20;5.73;;;2.00;;
13291;SDS011;6714;53.056;8.690;2023-07-13T05:17:02;3.97;;;2.10;;
13291;SDS011;6714;53.056;8.690;2023-07-13T05:19:44;5.13;;;1.87;;
13291;SDS011;6714;53.056;8.690;2023-07-13T05:22:26;4.47;;;2.17;;
13291;SDS011;6714;53.056;8.690;2023-07-13T05:25:10;2.90;;;2.00;;
13291;SDS011;6714;53.056;8.690;2023-07-13T05:27:52;4.00;;;1.73;;
13291;SDS011;6714;53.056;8.690;2023-07-13T05:30:34;2.83;;;1.80;;
13291;SDS011;6714;53.056;8.690;2023-07-13T05:33:17;4.97;;;2.10;;
13291;SDS011;6714;53.056;8.690;2023-07-13T05:35:59;3.43;;;1.73;;
13291;SDS011;6714;53.056;8.690;2023-07-13T05:38:42;3.37;;;1.83;;
13291;SDS011;6714;53.056;8.690;2023-07-13T05:41:25;4.27;;;1.90;;
13291;SDS011;6714;53.056;8.690;2023-07-13T05:44:08;5.57;;;2.23;;
13291;SDS011;6714;53.056;8.690;2023-07-13T05:46:50;6.17;;;2.43;;
13291;SDS011;6714;53.056;8.690;2023-07-13T05:49:32;3.43;;;2.13;;
13291;SDS011;6714;53.056;8.690;2023-07-13T05:52:15;4.57;;;1.87;;
13291;SDS011;6714;53.056;8.690;2023-07-13T05:54:57;2.23;;;1.73;;
13291;SDS011;6714;53.056;8.690;2023-07-13T05:57:40;3.47;;;1.83;;
13291;SDS011;6714;53.056;8.690;2023-07-13T06:00:23;5.33;;;2.30;;
13291;SDS011;6714;53.056;8.690;2023-07-13T06:03:05;6.00;;;2.20;;
13291;SDS011;6714;53.056;8.690;2023-07-13T06:05:47;3.47;;;2.10;;
13291;SDS011;6714;53.056;8.690;2023-07-13T06:08:30;4.33;;;2.20;;
13291;SDS011;6714;53.056;8.690;2023-07-13T06:11:13;4.27;;;2.00;;
13291;SDS011;6714;53.056;8.690;2023-07-13T06:13:57;3.83;;;2.10;;
13291;SDS011;6714;53.056;8.690;2023-07-13T06:16:40;4.53;;;2.17;;
13291;SDS011;6714;53.056;8.690;2023-07-13T06:19:24;4.57;;;1.83;;
13291;SDS011;6714;53.056;8.690;2023-07-13T06:22:06;4.70;;;2.23;;
13291;SDS011;6714;53.056;8.690;2023-07-13T06:24:49;6.57;;;2.73;;
13291;SDS011;6714;53.056;8.690;2023-07-13T06:27:31;4.37;;;2.17;;
13291;SDS011;6714;53.056;8.690;2023-07-13T06:30:15;2.70;;;2.00;;
13291;SDS011;6714;53.056;8.690;2023-07-13T06:32:57;5.80;;;2.10;;
13291;SDS011;6714;53.056;8.690;2023-07-13T06:35:39;3.37;;;2.10;;
13291;SDS011;6714;53.056;8.690;2023-07-13T06:38:22;2.83;;;1.80;;
13291;SDS011;6714;53.056;8.690;2023-07-13T06:41:04;7.27;;;2.83;;
13291;SDS011;6714;53.056;8.690;2023-07-13T06:43:46;7.83;;;2.90;;
13291;SDS011;6714;53.056;8.690;2023-07-13T06:46:30;3.73;;;2.00;;
13291;SDS011;6714;53.056;8.690;2023-07-13T06:49:12;2.63;;;1.57;;
13291;SDS011;6714;53.056;8.690;2023-07-13T06:51:54;6.93;;;2.70;;
13291;SDS011;6714;53.056;8.690;2023-07-13T06:54:36;4.90;;;2.57;;
13291;SDS011;6714;53.056;8.690;2023-07-13T06:57:19;4.87;;;2.07;;
13291;SDS011;6714;53.056;8.690;2023-07-13T07:00:02;4.60;;;2.50;;
13291;SDS011;6714;53.056;8.690;2023-07-13T07:02:46;8.50;;;2.50;;
13291;SDS011;6714;53.056;8.690;2023-07-13T07:05:28;2.67;;;1.97;;
13291;SDS011;6714;53.056;8.690;2023-07-13T07:08:10;5.83;;;2.47;;
13291;SDS011;6714;53.056;8.690;2023-07-13T07:10:53;4.63;;;2.00;;
13291;SDS011;6714;53.056;8.690;2023-07-13T07:13:35;4.27;;;2.37;;
13291;SDS011;6714;53.056;8.690;2023-07-13T07:16:18;8.33;;;2.53;;
13291;SDS011;6714;53.056;8.690;2023-07-13T07:19:02;4.80;;;2.70;;
13291;SDS011;6714;53.056;8.690;2023-07-13T07:21:44;2.50;;;1.70;;
13291;SDS011;6714;53.056;8.690;2023-07-13T07:24:26;3.00;;;2.00;;
13291;SDS011;6714;53.056;8.690;2023-07-13T07:27:09;3.67;;;2.40;;
13291;SDS011;6714;53.056;8.690;2023-07-13T07:29:51;5.23;;;2.73;;
13291;SDS011;6714;53.056;8.690;2023-07-13T07:32:33;4.17;;;2.20;;
13291;SDS011;6714;53.056;8.690;2023-07-13T07:35:17;5.27;;;2.20;;
13291;SDS011;6714;53.056;8.690;2023-07-13T07:37:59;5.30;;;2.53;;
13291;SDS011;6714;53.056;8.690;2023-07-13T07:40:42;3.17;;;2.20;;
13291;SDS011;6714;53.056;8.690;2023-07-13T07:43:24;4.93;;;2.40;;
13291;SDS011;6714;53.056;8.690;2023-07-13T07:46:06;3.93;;;2.33;;
13291;SDS011;6714;53.056;8.690;2023-07-13T07:48:49;5.27;;;3.00;;
13291;SDS011;6714;53.056;8.690;2023-07-13T07:51:32;3.10;;;2.07;;
13291;SDS011;6714;53.056;8.690;2023-07-13T07:54:14;2.27;;;1.93;;
13291;SDS011;6714;53.056;8.690;2023-07-13T07:56:57;3.97;;;2.80;;
13291;SDS011;6714;53.056;8.690;2023-07-13T07:59:39;3.33;;;2.43;;
13291;SDS011;6714;53.056;8.690;2023-07-13T08:02:21;3.07;;;1.87;;
13291;SDS011;6714;53.056;8.690;2023-07-13T08:05:03;2.53;;;2.03;;
13291;SDS011;6714;53.056;8.690;2023-07-13T08:07:47;3.23;;;2.30;;
13291;SDS011;6714;53.056;8.690;2023-07-13T08:10:29;3.87;;;2.30;;
13291;SDS011;6714;53.056;8.690;2023-07-13T08:13:12;6.20;;;2.67;;
13291;SDS011;6714;53.056;8.690;2023-07-13T08:15:54;4.63;;;2.40;;
13291;SDS011;6714;53.056;8.690;2023-07-13T08:18:36;4.87;;;2.50;;
13291;SDS011;6714;53.056;8.690;2023-07-13T08:21:18;4.17;;;2.13;;
13291;SDS011;6714;53.056;8.690;2023-07-13T08:24:03;5.43;;;2.63;;
13291;SDS011;6714;53.056;8.690;2023-07-13T08:26:45;3.00;;;2.13;;
13291;SDS011;6714;53.056;8.690;2023-07-13T08:29:28;3.57;;;2.40;;
13291;SDS011;6714;53.056;8.690;2023-07-13T08:32:11;2.27;;;1.80;;
13291;SDS011;6714;53.056;8.690;2023-07-13T08:34:53;2.97;;;1.87;;
13291;SDS011;6714;53.056;8.690;2023-07-13T08:37:36;3.80;;;2.27;;
13291;SDS011;6714;53.056;8.690;2023-07-13T08:40:19;2.67;;;2.27;;
13291;SDS011;6714;53.056;8.690;2023-07-13T08:43:07;3.60;;;2.10;;
13291;SDS011;6714;53.056;8.690;2023-07-13T08:45:51;3.53;;;2.50;;
13291;SDS011;6714;53.056;8.690;2023-07-13T08:48:35;3.67;;;2.07;;
13291;SDS011;6714;53.056;8.690;2023-07-13T08:51:27;3.53;;;2.30;;
13291;SDS011;6714;53.056;8.690;2023-07-13T08:54:15;3.03;;;2.10;;
13291;SDS011;6714;53.056;8.690;2023-07-13T08:57:02;3.33;;;2.17;;
13291;SDS011;6714;53.056;8.690;2023-07-13T08:59:45;4.77;;;2.30;;
13291;SDS011;6714;53.056;8.690;2023-07-13T09:02:28;2.40;;;2.00;;
13291;SDS011;6714;53.056;8.690;2023-07-13T09:05:14;3.77;;;2.03;;
13291;SDS011;6714;53.056;8.690;2023-07-13T09:08:04;2.23;;;1.90;;
13291;SDS011;6714;53.056;8.690;2023-07-13T09:10:49;1.70;;;1.60;;
13291;SDS011;6714;53.056;8.690;2023-07-13T09:13:39;1.90;;;1.80;;
13291;SDS011;6714;53.056;8.690;2023-07-13T09:16:25;3.20;;;2.08;;
13291;SDS011;6714;53.056;8.690;2023-07-13T09:19:09;2.05;;;1.80;;
13291;SDS011;6714;53.056;8.690;2023-07-13T09:21:53;2.15;;;1.80;;
13291;SDS011;6714;53.056;8.690;2023-07-13T09:24:39;1.75;;;1.65;;
13291;SDS011;6714;53.056;8.690;2023-07-13T09:27:24;2.10;;;1.60;;
13291;SDS011;6714;53.056;8.690;2023-07-13T09:30:17;2.45;;;1.70;;
13291;SDS011;6714;53.056;8.690;2023-07-13T09:33:03;2.83;;;1.70;;
13291;SDS011;6714;53.056;8.690;2023-07-13T09:35:45;1.95;;;1.83;;
13291;SDS011;6714;53.056;8.690;2023-07-13T09:38:28;3.58;;;1.90;;
13291;SDS011;6714;53.056;8.690;2023-07-13T09:41:14;1.92;;;1.83;;
13291;SDS011;6714;53.056;8.690;2023-07-13T09:44:09;3.05;;;1.83;;
13291;SDS011;6714;53.056;8.690;2023-07-13T09:46:53;2.00;;;1.58;;
13291;SDS011;6714;53.056;8.690;2023-07-13T09:49:36;3.42;;;1.80;;
13291;SDS011;6714;53.056;8.690;2023-07-13T09:52:19;3.10;;;1.95;;
13291;SDS011;6714;53.056;8.690;2023-07-13T09:55:01;2.70;;;1.92;;
13291;SDS011;6714;53.056;8.690;2023-07-13T09:57:46;2.17;;;1.58;;
13291;SDS011;6714;53.056;8.690;2023-07-13T10:00:29;1.70;;;1.60;;
13291;SDS011;6714;53.056;8.690;2023-07-13T10:03:18;2.35;;;1.48;;
13291;SDS011;6714;53.056;8.690;2023-07-13T10:06:09;2.63;;;1.80;;
13291;SDS011;6714;53.056;8.690;2023-07-13T10:08:52;3.45;;;1.98;;
13291;SDS011;6714;53.056;8.690;2023-07-13T10:11:35;2.35;;;1.55;;
13291;SDS011;6714;53.056;8.690;2023-07-13T10:14:19;1.50;;;1.50;;
13291;SDS011;6714;53.056;8.690;2023-07-13T10:17:03;2.53;;;1.60;;
13291;SDS011;6714;53.056;8.690;2023-07-13T10:19:47;1.50;;;1.40;;
13291;SDS011;6714;53.056;8.690;2023-07-13T10:22:33;1.50;;;1.40;;
13291;SDS011;6714;53.056;8.690;2023-07-13T10:25:20;2.65;;;1.75;;
13291;SDS011;6714;53.056;8.690;2023-07-13T10:28:04;2.95;;;1.70;;
13291;SDS011;6714;53.056;8.690;2023-07-13T10:30:48;2.53;;;1.80;;
13291;SDS011;6714;53.056;8.690;2023-07-13T10:33:30;1.42;;;1.33;;
13291;SDS011;6714;53.056;8.690;2023-07-13T10:36:15;1.48;;;1.35;;
13291;SDS011;6714;53.056;8.690;2023-07-13T10:38:59;1.90;;;1.70;;
13291;SDS011;6714;53.056;8.690;2023-07-13T10:41:43;2.13;;;1.50;;
13291;SDS011;6714;53.056;8.690;2023-07-13T10:44:28;2.97;;;1.90;;
13291;SDS011;6714;53.056;8.690;2023-07-13T10:47:11;1.58;;;1.48;;
13291;SDS011;6714;53.056;8.690;2023-07-13T10:49:56;1.80;;;1.60;;
13291;SDS011;6714;53.056;8.690;2023-07-13T10:52:42;1.48;;;1.38;;
13291;SDS011;6714;53.056;8.690;2023-07-13T10:58:31;1.63;;;1.52;;
13291;SDS011;6714;53.056;8.690;2023-07-13T11:01:14;1.73;;;1.63;;
13291;SDS011;6714;53.056;8.690;2023-07-13T11:04:00;2.50;;;2.05;;
13291;SDS011;6714;53.056;8.690;2023-07-13T11:06:43;1.90;;;1.50;;
13291;SDS011;6714;53.056;8.690;2023-07-13T11:09:32;1.42;;;1.33;;
13291;SDS011;6714;53.056;8.690;2023-07-13T11:12:26;1.60;;;1.50;;
13291;SDS011;6714;53.056;8.690;2023-07-13T11:15:11;2.00;;;1.42;;
13291;SDS011;6714;53.056;8.690;2023-07-13T11:17:54;1.67;;;1.58;;
13291;SDS011;6714;53.056;8.690;2023-07-13T11:20:40;2.75;;;1.67;;
13291;SDS011;6714;53.056;8.690;2023-07-13T11:23:27;1.55;;;1.45;;
13291;SDS011;6714;53.056;8.690;2023-07-13T11:29:22;1.70;;;1.60;;
13291;SDS011;6714;53.056;8.690;2023-07-13T11:32:21;3.08;;;1.70;;
13291;SDS011;6714;53.056;8.690;2023-07-13T11:35:04;1.60;;;1.50;;
13291;SDS011;6714;53.056;8.690;2023-07-13T11:37:46;1.58;;;1.48;;
13291;SDS011;6714;53.056;8.690;2023-07-13T11:40:29;1.50;;;1.40;;
13291;SDS011;6714;53.056;8.690;2023-07-13T11:43:12;2.08;;;1.33;;
13291;SDS011;6714;53.056;8.690;2023-07-13T11:45:57;1.50;;;1.40;;
13291;SDS011;6714;53.056;8.690;2023-07-13T11:48:39;2.08;;;1.50;;
13291;SDS011;6714;53.056;8.690;2023-07-13T11:51:22;1.15;;;1.15;;
13291;SDS011;6714;53.056;8.690;2023-07-13T11:54:06;1.27;;;1.17;;
13291;SDS011;6714;53.056;8.690;2023-07-13T11:56:55;1.40;;;1.30;;
13291;SDS011;6714;53.056;8.690;2023-07-13T11:59:40;1.40;;;1.30;;
13291;SDS011;6714;53.056;8.690;2023-07-13T12:02:26;1.45;;;1.35;;
13291;SDS011;6714;53.056;8.690;2023-07-13T12:05:13;1.10;;;1.10;;
13291;SDS011;6714;53.056;8.690;2023-07-13T12:07:57;1.23;;;1.23;;
13291;SDS011;6714;53.056;8.690;2023-07-13T12:10:40;1.40;;;1.30;;
13291;SDS011;6714;53.056;8.690;2023-07-13T12:13:22;1.50;;;1.40;;
13291;SDS011;6714;53.056;8.690;2023-07-13T12:16:11;1.90;;;1.23;;
13291;SDS011;6714;53.056;8.690;2023-07-13T12:18:55;1.10;;;1.10;;
13291;SDS011;6714;53.056;8.690;2023-07-13T12:21:39;1.60;;;1.50;;
13291;SDS011;6714;53.056;8.690;2023-07-13T12:24:21;1.40;;;1.30;;
13291;SDS011;6714;53.056;8.690;2023-07-13T12:27:04;1.40;;;1.30;;
13291;SDS011;6714;53.056;8.690;2023-07-13T12:29:50;1.10;;;1.10;;
13291;SDS011;6714;53.056;8.690;2023-07-13T12:32:34;1.60;;;1.40;;
13291;SDS011;6714;53.056;8.690;2023-07-13T12:35:17;1.27;;;1.27;;
13291;SDS011;6714;53.056;8.690;2023-07-13T12:37:59;1.10;;;1.10;;
13291;SDS011;6714;53.056;8.690;2023-07-13T12:40:42;1.40;;;1.30;;
13291;SDS011;6714;53.056;8.690;2023-07-13T12:43:25;1.30;;;1.27;;
13291;SDS011;6714;53.056;8.690;2023-07-13T12:46:15;1.30;;;1.30;;
13291;SDS011;6714;53.056;8.690;2023-07-13T12:48:58;1.43;;;1.33;;
13291;SDS011;6714;53.056;8.690;2023-07-13T12:51:42;1.47;;;1.37;;
13291;SDS011;6714;53.056;8.690;2023-07-13T12:54:24;1.20;;;1.10;;
13291;SDS011;6714;53.056;8.690;2023-07-13T12:57:08;1.03;;;1.03;;
13291;SDS011;6714;53.056;8.690;2023-07-13T12:59:55;1.17;;;1.10;;
13291;SDS011;6714;53.056;8.690;2023-07-13T13:02:38;1.40;;;1.27;;
13291;SDS011;6714;53.056;8.690;2023-07-13T13:05:20;1.37;;;1.27;;
13291;SDS011;6714;53.056;8.690;2023-07-13T13:08:05;1.27;;;1.20;;
13291;SDS011;6714;53.056;8.690;2023-07-13T13:10:47;1.40;;;1.30;;
13291;SDS011;6714;53.056;8.690;2023-07-13T13:13:29;1.33;;;1.20;;
13291;SDS011;6714;53.056;8.690;2023-07-13T13:16:12;1.13;;;1.13;;
13291;SDS011;6714;53.056;8.690;2023-07-13T13:18:56;1.00;;;1.00;;
13291;SDS011;6714;53.056;8.690;2023-07-13T13:21:38;1.20;;;1.10;;
13291;SDS011;6714;53.056;8.690;2023-07-13T13:24:23;1.00;;;1.00;;
13291;SDS011;6714;53.056;8.690;2023-07-13T13:27:08;1.00;;;1.00;;
13291;SDS011;6714;53.056;8.690;2023-07-13T13:29:51;1.00;;;1.00;;
13291;SDS011;6714;53.056;8.690;2023-07-13T13:32:34;1.30;;;1.20;;
13291;SDS011;6714;53.056;8.690;2023-07-13T13:35:16;1.30;;;1.20;;
13291;SDS011;6714;53.056;8.690;2023-07-13T13:37:59;1.70;;;1.10;;
13291;SDS011;6714;53.056;8.690;2023-07-13T13:40:43;0.88;;;0.88;;
13291;SDS011;6714;53.056;8.690;2023-07-13T13:43:26;0.93;;;0.93;;
13291;SDS011;6714;53.056;8.690;2023-07-13T13:46:12;1.48;;;1.23;;
13291;SDS011;6714;53.056;8.690;2023-07-13T13:48:55;1.10;;;1.10;;
13291;SDS011;6714;53.056;8.690;2023-07-13T13:51:38;1.10;;;1.00;;
13291;SDS011;6714;53.056;8.690;2023-07-13T13:54:20;1.20;;;1.10;;
13291;SDS011;6714;53.056;8.690;2023-07-13T13:57:05;1.30;;;1.20;;
13291;SDS011;6714;53.056;8.690;2023-07-13T13:59:47;1.20;;;1.10;;
13291;SDS011;6714;53.056;8.690;2023-07-13T14:02:30;1.13;;;1.13;;
13291;SDS011;6714;53.056;8.690;2023-07-13T14:05:13;0.90;;;0.90;;
13291;SDS011;6714;53.056;8.690;2023-07-13T14:07:58;1.17;;;1.17;;
13291;SDS011;6714;53.056;8.690;2023-07-13T14:10:41;1.27;;;1.17;;
13291;SDS011;6714;53.056;8.690;2023-07-13T14:13:26;1.40;;;1.40;;
13291;SDS011;6714;53.056;8.690;2023-07-13T14:16:09;1.10;;;1.10;;
13291;SDS011;6714;53.056;8.690;2023-07-13T14:18:53;1.30;;;1.20;;
13291;SDS011;6714;53.056;8.690;2023-07-13T14:21:36;1.15;;;1.10;;
13291;SDS011;6714;53.056;8.690;2023-07-13T14:24:18;1.10;;;1.10;;
13291;SDS011;6714;53.056;8.690;2023-07-13T14:27:01;1.30;;;1.20;;
13291;SDS011;6714;53.056;8.690;2023-07-13T14:29:44;1.63;;;1.50;;
13291;SDS011;6714;53.056;8.690;2023-07-13T14:32:27;1.27;;;1.17;;
13291;SDS011;6714;53.056;8.690;2023-07-13T14:35:10;1.30;;;1.30;;
13291;SDS011;6714;53.056;8.690;2023-07-13T14:37:52;1.63;;;1.52;;
13291;SDS011;6714;53.056;8.690;2023-07-13T14:40:35;1.40;;;1.30;;
13291;SDS011;6714;53.056;8.690;2023-07-13T14:43:18;1.00;;;1.00;;
13291;SDS011;6714;53.056;8.690;2023-07-13T14:46:01;1.30;;;1.30;;
13291;SDS011;6714;53.056;8.690;2023-07-13T14:48:44;1.17;;;1.02;;
13291;SDS011;6714;53.056;8.690;2023-07-13T14:51:26;1.35;;;1.25;;
13291;SDS011;6714;53.056;8.690;2023-07-13T14:54:08;1.30;;;1.20;;
13291;SDS011;6714;53.056;8.690;2023-07-13T14:56:51;1.10;;;1.10;;
13291;SDS011;6714;53.056;8.690;2023-07-13T14:59:34;1.00;;;1.00;;
13291;SDS011;6714;53.056;8.690;2023-07-13T15:02:21;1.15;;;1.10;;
13291;SDS011;6714;53.056;8.690;2023-07-13T15:05:07;1.10;;;1.10;;
13291;SDS011;6714;53.056;8.690;2023-07-13T15:07:55;1.00;;;1.00;;
13291;SDS011;6714;53.056;8.690;2023-07-13T15:10:38;1.20;;;1.15;;
13291;SDS011;6714;53.056;8.690;2023-07-13T15:13:20;0.77;;;0.77;;
13291;SDS011;6714;53.056;8.690;2023-07-13T15:16:04;0.93;;;0.93;;
13291;SDS011;6714;53.056;8.690;2023-07-13T15:18:48;0.80;;;0.80;;
13291;SDS011;6714;53.056;8.690;2023-07-13T15:21:31;0.98;;;0.98;;
13291;SDS011;6714;53.056;8.690;2023-07-13T15:24:14;1.50;;;1.00;;
13291;SDS011;6714;53.056;8.690;2023-07-13T15:26:57;1.10;;;1.10;;
13291;SDS011;6714;53.056;8.690;2023-07-13T15:29:39;1.67;;;1.00;;
13291;SDS011;6714;53.056;8.690;2023-07-13T15:32:22;2.25;;;1.05;;
13291;SDS011;6714;53.056;8.690;2023-07-13T15:35:12;1.00;;;0.90;;
13291;SDS011;6714;53.056;8.690;2023-07-13T15:37:55;1.00;;;0.90;;
13291;SDS011;6714;53.056;8.690;2023-07-13T15:40:37;0.85;;;0.70;;
13291;SDS011;6714;53.056;8.690;2023-07-13T15:43:20;1.02;;;0.90;;
13291;SDS011;6714;53.056;8.690;2023-07-13T15:46:02;1.10;;;1.00;;
13291;SDS011;6714;53.056;8.690;2023-07-13T15:48:45;1.00;;;1.00;;
13291;SDS011;6714;53.056;8.690;2023-07-13T15:51:29;1.35;;;0.80;;
13291;SDS011;6714;53.056;8.690;2023-07-13T15:54:13;1.55;;;0.98;;
13291;SDS011;6714;53.056;8.690;2023-07-13T15:56:56;0.68;;;0.63;;
13291;SDS011;6714;53.056;8.690;2023-07-13T15:59:42;0.93;;;0.93;;
13291;SDS011;6714;53.056;8.690;2023-07-13T16:02:25;2.17;;;1.17;;
13291;SDS011;6714;53.056;8.690;2023-07-13T16:05:07;1.75;;;1.20;;
13291;SDS011;6714;53.056;8.690;2023-07-13T16:07:51;1.08;;;1.00;;
13291;SDS011;6714;53.056;8.690;2023-07-13T16:10:34;4.10;;;1.42;;
13291;SDS011;6714;53.056;8.690;2023-07-13T16:13:19;1.30;;;1.15;;
13291;SDS011;6714;53.056;8.690;2023-07-13T16:16:01;1.48;;;1.15;;
13291;SDS011;6714;53.056;8.690;2023-07-13T16:18:43;2.67;;;1.07;;
13291;SDS011;6714;53.056;8.690;2023-07-13T16:21:26;3.40;;;1.13;;
13291;SDS011;6714;53.056;8.690;2023-07-13T16:24:15;2.90;;;1.20;;
13291;SDS011;6714;53.056;8.690;2023-07-13T16:26:58;1.10;;;1.00;;
13291;SDS011;6714;53.056;8.690;2023-07-13T16:29:42;2.20;;;1.00;;
13291;SDS011;6714;53.056;8.690;2023-07-13T16:32:25;1.00;;;0.87;;
13291;SDS011;6714;53.056;8.690;2023-07-13T16:35:08;2.00;;;1.00;;
13291;SDS011;6714;53.056;8.690;2023-07-13T16:37:51;0.93;;;0.90;;
13291;SDS011;6714;53.056;8.690;2023-07-13T16:40:37;1.40;;;1.00;;
13291;SDS011;6714;53.056;8.690;2023-07-13T16:43:19;1.40;;;1.20;;
13291;SDS011;6714;53.056;8.690;2023-07-13T16:46:02;1.27;;;1.00;;
13291;SDS011;6714;53.056;8.690;2023-07-13T16:48:44;0.97;;;0.90;;